createdAt,value
2022-12-28T00:01:50.385Z,15.87
2022-12-28T00:06:53.237Z,15.70
2022-12-28T00:11:55.738Z,15.90
2022-12-28T00:16:58.220Z,15.47
2022-12-28T00:22:00.846Z,15.60
2022-12-28T00:27:03.445Z,17.27
2022-12-28T00:32:06.004Z,19.20
2022-12-28T00:37:12.897Z,17.40
2022-12-28T00:42:16.060Z,18.13
2022-12-28T00:47:18.607Z,15.47
2022-12-28T00:52:21.281Z,14.63
2022-12-28T00:57:23.850Z,16.50
2022-12-28T01:02:26.309Z,15.53
2022-12-28T01:07:28.862Z,16.07
2022-12-28T01:12:36.309Z,16.40
2022-12-28T01:17:40.901Z,18.83
2022-12-28T01:22:43.519Z,19.80
2022-12-28T01:27:46.114Z,18.23
2022-12-28T01:32:48.605Z,16.47
2022-12-28T01:37:51.120Z,16.43
2022-12-28T01:42:53.657Z,16.90
2022-12-28T01:47:56.568Z,14.00
2022-12-28T01:53:06.021Z,13.97
2022-12-28T01:58:11.611Z,14.60
2022-12-28T02:03:23.883Z,13.67
2022-12-28T02:08:45.157Z,13.33
2022-12-28T02:13:49.404Z,11.80
2022-12-28T02:18:53.841Z,13.27
2022-12-28T02:23:58.676Z,12.13
2022-12-28T02:29:29.737Z,12.73
2022-12-28T02:34:57.260Z,13.10
2022-12-28T02:40:06.292Z,14.87
2022-12-28T02:45:44.107Z,12.60
2022-12-28T02:50:54.139Z,12.63
2022-12-28T02:56:30.390Z,11.93
2022-12-28T03:01:48.384Z,11.70
2022-12-28T03:07:43.606Z,11.60
2022-12-28T03:12:55.806Z,11.03
2022-12-28T03:18:26.096Z,12.03
2022-12-28T03:23:49.837Z,12.53
2022-12-28T03:29:12.604Z,12.17
2022-12-28T03:34:18.319Z,11.10
2022-12-28T03:39:41.712Z,12.83
2022-12-28T03:44:52.912Z,10.83
2022-12-28T03:49:55.753Z,9.83
2022-12-28T03:54:59.408Z,8.73
2022-12-28T04:00:04.412Z,8.80
2022-12-28T04:05:18.168Z,9.50
2022-12-28T04:10:21.227Z,9.70
2022-12-28T04:15:24.606Z,10.50
2022-12-28T04:20:27.487Z,9.63
2022-12-28T04:25:30.027Z,10.30
2022-12-28T04:30:32.620Z,9.93
2022-12-28T04:35:35.372Z,9.00
2022-12-28T04:40:38.145Z,8.07
2022-12-28T04:45:40.711Z,8.47
2022-12-28T04:50:43.365Z,8.73
2022-12-28T04:55:46.019Z,9.07
2022-12-28T05:00:48.831Z,9.50
2022-12-28T05:05:51.425Z,11.07
2022-12-28T05:10:54.090Z,12.53
2022-12-28T05:16:01.762Z,9.07
2022-12-28T05:21:12.293Z,10.17
2022-12-28T05:26:17.603Z,12.50
2022-12-28T05:31:22.000Z,14.77
2022-12-28T05:36:26.923Z,10.80
2022-12-28T05:41:30.565Z,9.37
2022-12-28T05:46:34.627Z,12.17
2022-12-28T05:51:39.669Z,14.53
2022-12-28T05:56:42.565Z,15.30
2022-12-28T06:01:45.756Z,12.67
2022-12-28T06:06:55.967Z,9.70
2022-12-28T06:11:58.471Z,9.37
2022-12-28T06:17:00.926Z,11.93
2022-12-28T06:22:03.603Z,12.90
2022-12-28T06:27:06.111Z,12.97
2022-12-28T06:32:08.693Z,17.67
2022-12-28T06:37:11.342Z,13.07
2022-12-28T06:42:13.788Z,14.23
2022-12-28T06:47:16.324Z,14.60
2022-12-28T06:52:18.873Z,20.17
2022-12-28T06:57:21.389Z,14.23
2022-12-28T07:02:24.019Z,12.20
2022-12-28T07:07:26.859Z,9.07
2022-12-28T07:12:29.389Z,9.07
2022-12-28T07:17:34.048Z,9.37
2022-12-28T07:22:36.701Z,8.63
2022-12-28T07:27:39.173Z,10.70
2022-12-28T07:32:41.704Z,11.90
2022-12-28T07:37:44.300Z,13.00
2022-12-28T07:42:46.762Z,11.43
2022-12-28T07:47:49.326Z,13.57
2022-12-28T07:52:52.267Z,16.77
2022-12-28T07:57:54.745Z,12.03
2022-12-28T08:02:57.308Z,11.10
2022-12-28T08:08:03.521Z,10.93
2022-12-28T08:13:06.909Z,12.40
2022-12-28T08:18:09.422Z,12.50
2022-12-28T08:23:11.900Z,14.53
2022-12-28T08:28:14.536Z,9.83
2022-12-28T08:33:17.103Z,11.10
2022-12-28T08:38:19.583Z,9.77
2022-12-28T08:43:22.013Z,12.30
2022-12-28T08:48:24.547Z,8.80
2022-12-28T08:53:27.079Z,9.67
2022-12-28T08:58:29.549Z,10.43
2022-12-28T09:03:32.022Z,12.23
2022-12-28T09:08:34.956Z,13.23
2022-12-28T09:13:37.642Z,13.03
2022-12-28T09:18:42.800Z,11.70
2022-12-28T09:23:46.796Z,12.00
2022-12-28T09:28:57.625Z,12.13
2022-12-28T09:34:34.959Z,14.63
2022-12-28T09:39:26.988Z,12.00
2022-12-28T09:45:01.334Z,9.40
2022-12-28T09:50:19.134Z,10.07
2022-12-28T09:55:22.448Z,9.43
2022-12-28T10:00:34.257Z,10.37
2022-12-28T10:05:36.893Z,9.30
2022-12-28T10:10:46.701Z,9.03
2022-12-28T10:15:51.611Z,8.10
2022-12-28T10:20:55.109Z,8.37
2022-12-28T10:25:59.558Z,8.00
2022-12-28T10:31:06.766Z,8.00
2022-12-28T10:36:14.869Z,7.90
2022-12-28T10:41:20.098Z,8.47
2022-12-28T10:46:24.418Z,6.33
2022-12-28T10:51:30.002Z,6.90
2022-12-28T10:56:44.316Z,5.83
2022-12-28T11:01:47.215Z,8.23
2022-12-28T11:06:52.762Z,5.53
2022-12-28T11:12:15.917Z,6.63
2022-12-28T11:17:28.713Z,6.57
2022-12-28T11:22:32.058Z,8.67
2022-12-28T11:27:36.419Z,7.03
2022-12-28T11:32:47.837Z,6.93
2022-12-28T11:37:57.177Z,6.80
2022-12-28T11:42:59.667Z,6.67
2022-12-28T11:48:40.448Z,9.83
2022-12-28T11:53:45.654Z,5.37
2022-12-28T11:59:20.817Z,6.30
2022-12-28T12:04:55.742Z,4.07
2022-12-28T12:10:34.583Z,6.20
2022-12-28T12:15:43.084Z,6.50
2022-12-28T12:21:13.315Z,6.13
2022-12-28T12:26:39.947Z,7.20
2022-12-28T12:31:50.890Z,9.10
2022-12-28T12:37:28.908Z,6.13
2022-12-28T12:42:59.884Z,6.07
2022-12-28T12:48:11.708Z,6.63
2022-12-28T12:53:51.313Z,6.37
2022-12-28T12:59:27.530Z,5.40
2022-12-28T13:04:34.055Z,7.77
2022-12-28T13:09:36.761Z,5.77
2022-12-28T13:14:39.525Z,6.10
2022-12-28T13:19:42.042Z,5.83
2022-12-28T13:24:45.961Z,7.97
2022-12-28T13:29:53.781Z,6.33
2022-12-28T13:34:56.392Z,5.47
2022-12-28T13:40:15.536Z,5.67
2022-12-28T13:45:20.725Z,4.93
2022-12-28T13:50:33.712Z,6.57
2022-12-28T13:55:49.920Z,6.83
2022-12-28T14:00:55.314Z,6.10
2022-12-28T14:06:00.978Z,5.33
2022-12-28T14:11:05.482Z,8.97
2022-12-28T14:16:08.986Z,7.03
2022-12-28T14:21:12.075Z,7.70
2022-12-28T14:26:22.280Z,7.70
2022-12-28T14:31:31.131Z,7.03
2022-12-28T14:36:43.405Z,7.83
2022-12-28T14:41:46.883Z,7.70
2022-12-28T14:46:54.328Z,7.00
2022-12-28T14:52:21.552Z,7.17
2022-12-28T14:57:34.538Z,7.97
2022-12-28T15:03:21.605Z,7.20
2022-12-28T15:08:24.891Z,8.40
2022-12-28T15:13:28.002Z,6.57
2022-12-28T15:18:31.150Z,11.17
2022-12-28T15:23:33.763Z,8.10
2022-12-28T15:28:36.845Z,8.87
2022-12-28T15:33:39.743Z,6.87
2022-12-28T15:38:42.478Z,7.43
2022-12-28T15:43:49.168Z,6.57
2022-12-28T15:48:51.954Z,6.07
2022-12-28T15:53:54.437Z,6.10
2022-12-28T15:58:58.504Z,6.47
2022-12-28T16:04:02.683Z,5.63
2022-12-28T16:09:05.378Z,6.27
2022-12-28T16:14:13.141Z,7.10
2022-12-28T16:19:16.437Z,7.03
2022-12-28T16:24:20.263Z,9.17
2022-12-28T16:29:22.747Z,6.87
2022-12-28T16:34:25.353Z,9.00
2022-12-28T16:39:29.855Z,7.97
2022-12-28T16:44:33.403Z,8.47
2022-12-28T16:49:39.884Z,6.63
2022-12-28T16:54:42.472Z,5.67
2022-12-28T16:59:45.032Z,6.53
2022-12-28T17:04:47.551Z,5.90
2022-12-28T17:09:50.508Z,7.87
2022-12-28T17:14:52.993Z,6.07
2022-12-28T17:19:56.366Z,6.13
2022-12-28T17:24:59.008Z,6.13
2022-12-28T17:30:01.693Z,4.27
2022-12-28T17:35:04.348Z,6.50
2022-12-28T17:40:07.457Z,5.00
2022-12-28T17:45:12.000Z,4.30
2022-12-28T17:50:15.033Z,4.73
2022-12-28T17:55:17.573Z,6.50
2022-12-28T18:00:23.568Z,6.17
2022-12-28T18:05:26.102Z,5.90
2022-12-28T18:10:28.633Z,5.53
2022-12-28T18:15:33.985Z,6.50
2022-12-28T18:20:36.594Z,8.23
2022-12-28T18:25:39.401Z,6.87
2022-12-28T18:30:42.252Z,8.40
2022-12-28T18:35:44.730Z,10.47
2022-12-28T18:40:55.747Z,8.40
2022-12-28T18:46:01.323Z,7.53
2022-12-28T18:51:07.439Z,6.40
2022-12-28T18:56:14.217Z,6.57
2022-12-28T19:01:55.994Z,9.50
2022-12-28T19:06:43.155Z,10.17
2022-12-28T19:11:45.924Z,8.20
2022-12-28T19:16:48.535Z,11.13
2022-12-28T19:21:56.606Z,9.03
2022-12-28T19:27:01.130Z,8.73
2022-12-28T19:32:03.673Z,11.30
2022-12-28T19:37:06.299Z,10.57
2022-12-28T19:42:08.761Z,10.97
2022-12-28T19:47:11.266Z,13.07
2022-12-28T19:52:13.750Z,10.23
2022-12-28T19:57:16.409Z,13.87
2022-12-28T20:02:18.966Z,11.40
2022-12-28T20:07:21.703Z,10.53
2022-12-28T20:12:24.234Z,9.10
2022-12-28T20:17:26.778Z,11.57
2022-12-28T20:22:29.223Z,6.93
2022-12-28T20:27:32.048Z,11.13
2022-12-28T20:32:39.707Z,9.53
2022-12-28T20:37:45.340Z,9.43
2022-12-28T20:43:06.259Z,6.87
2022-12-28T20:48:08.761Z,6.63
2022-12-28T20:53:11.294Z,9.43
2022-12-28T20:58:13.742Z,8.97
2022-12-28T21:03:16.295Z,9.10
2022-12-28T21:08:18.873Z,7.00
2022-12-28T21:13:21.880Z,7.13
2022-12-28T21:18:24.672Z,6.43
2022-12-28T21:23:28.949Z,10.70
2022-12-28T21:28:31.787Z,10.43
2022-12-28T21:33:34.491Z,8.27
2022-12-28T21:38:40.726Z,7.33
2022-12-28T21:43:43.438Z,7.73
2022-12-28T21:48:45.969Z,8.33
2022-12-28T21:53:48.575Z,7.23
2022-12-28T21:58:51.708Z,7.20
2022-12-28T22:04:12.891Z,7.67
2022-12-28T22:09:33.821Z,6.80
2022-12-28T22:14:36.306Z,7.03
2022-12-28T22:19:38.854Z,8.33
2022-12-28T22:24:41.398Z,7.03
2022-12-28T22:29:46.144Z,8.50
2022-12-28T22:34:48.615Z,9.37
2022-12-28T22:39:54.090Z,8.03
2022-12-28T22:44:56.821Z,8.40
2022-12-28T22:49:59.329Z,7.80
2022-12-28T22:55:01.796Z,7.13
2022-12-28T23:00:08.721Z,6.30
2022-12-28T23:05:11.181Z,7.63
2022-12-28T23:10:13.705Z,6.30
2022-12-28T23:15:16.494Z,6.47
2022-12-28T23:20:37.598Z,6.07
2022-12-28T23:26:00.050Z,6.77
2022-12-28T23:31:02.759Z,6.10
2022-12-28T23:36:05.477Z,6.23
2022-12-28T23:41:26.637Z,6.57
2022-12-28T23:46:29.147Z,5.77
2022-12-28T23:51:31.680Z,5.93
2022-12-28T23:56:34.450Z,6.37
